Time;durP1;ratioP1;P1;durP2;ratioP2;P2;SDS_P1;SDS_P2;PMS_P1;PMS_P2;Temp;Humidity;BMP_temperature;BMP_pressure;BME280_temperature;BME280_humidity;BME280_pressure;Samples;Min_cycle;Max_cycle;Signal;HPM_P1;HPM_P2
2022/06/02 00:01:33;;;;;;;6.00;5.40;;;9.30;99.90;;;;;;5056772;28;20125;-57
2022/06/02 00:04:01;;;;;;;10.52;6.75;;;9.30;99.90;;;;;;5066638;28;20040;-57
2022/06/02 00:06:46;;;;;;;6.53;5.72;;;9.20;99.90;;;;;;5051522;28;20672;-56
2022/06/02 00:09:36;;;;;;;7.68;6.63;;;9.20;99.90;;;;;;5061902;28;20048;-57
2022/06/02 00:12:13;;;;;;;6.30;5.70;;;9.10;99.90;;;;;;5056825;28;20384;-56
2022/06/02 00:14:55;;;;;;;8.07;7.28;;;9.10;99.90;;;;;;5068061;28;20049;-57
2022/06/02 00:17:48;;;;;;;9.90;7.30;;;9.10;99.90;;;;;;5065580;28;20039;-57
2022/06/02 00:20:26;;;;;;;7.65;6.40;;;9.00;99.90;;;;;;5067220;28;20052;-57
2022/06/02 00:23:11;;;;;;;9.00;6.85;;;9.00;99.90;;;;;;5063866;28;20375;-58
2022/06/02 00:25:46;;;;;;;7.85;6.90;;;8.90;99.90;;;;;;5068591;28;20048;-57
2022/06/02 00:28:35;;;;;;;7.60;6.75;;;8.90;99.90;;;;;;5061250;28;20047;-57
2022/06/02 00:31:33;;;;;;;7.25;6.53;;;8.90;99.90;;;;;;5059715;28;20052;-57
2022/06/02 00:34:32;;;;;;;8.60;6.78;;;8.90;99.90;;;;;;5064637;28;20395;-57
2022/06/02 00:37:17;;;;;;;8.57;7.25;;;8.90;99.90;;;;;;5021657;28;20481;-57
2022/06/02 00:39:46;;;;;;;8.00;6.70;;;8.80;99.90;;;;;;5062497;28;20131;-58
2022/06/02 00:42:24;;;;;;;7.63;6.78;;;8.80;99.90;;;;;;5067435;28;20032;-57
2022/06/02 00:44:53;;;;;;;9.52;8.18;;;8.80;99.90;;;;;;5064983;28;20041;-56
2022/06/02 00:47:53;;;;;;;9.73;7.57;;;8.70;99.90;;;;;;5067575;28;20127;-58
2022/06/02 00:50:37;;;;;;;8.15;7.32;;;8.70;99.90;;;;;;5067627;28;20041;-57
2022/06/02 00:53:22;;;;;;;10.18;8.07;;;8.70;99.90;;;;;;5067067;28;20106;-58
2022/06/02 00:59:13;;;;;;;10.30;9.20;;;8.60;99.90;;;;;;5063413;28;20041;-58
2022/06/02 01:01:39;;;;;;;9.68;8.63;;;8.50;99.90;;;;;;5064836;28;20089;-57
2022/06/02 01:04:15;;;;;;;9.82;8.88;;;8.50;99.90;;;;;;5061511;28;20048;-56
2022/06/02 01:06:46;;;;;;;9.63;8.60;;;8.50;99.90;;;;;;5066528;28;20098;-56
2022/06/02 01:09:26;;;;;;;13.88;10.60;;;8.40;99.90;;;;;;5065076;28;20048;-57
2022/06/02 01:12:06;;;;;;;12.07;9.48;;;8.40;99.90;;;;;;5062006;28;20049;-56
2022/06/02 01:14:55;;;;;;;11.63;9.15;;;8.40;99.90;;;;;;5076586;28;20040;-57
2022/06/02 01:17:27;;;;;;;12.30;9.30;;;8.30;99.90;;;;;;5066001;28;20452;-57
2022/06/02 01:20:18;;;;;;;11.05;8.90;;;8.30;99.90;;;;;;5064898;28;20036;-56
2022/06/02 01:23:25;;;;;;;10.02;8.32;;;8.20;99.90;;;;;;5064529;28;20047;-57
2022/06/02 01:26:00;;;;;;;11.32;9.48;;;8.20;99.90;;;;;;5066989;28;20052;-57
2022/06/02 01:28:47;;;;;;;10.82;9.70;;;8.10;99.90;;;;;;5063504;28;20049;-58
2022/06/02 01:31:31;;;;;;;11.25;9.13;;;8.10;99.90;;;;;;5066069;28;20098;-57
2022/06/02 01:34:35;;;;;;;9.80;8.80;;;8.00;99.90;;;;;;5064925;28;20045;-56
2022/06/02 01:37:26;;;;;;;9.23;8.02;;;8.00;99.90;;;;;;5048546;28;20052;-58
2022/06/02 01:40:12;;;;;;;10.02;8.93;;;7.90;99.90;;;;;;5064394;28;20052;-57
2022/06/02 01:42:56;;;;;;;10.80;9.23;;;7.90;99.90;;;;;;5066323;28;20040;-57
2022/06/02 01:45:58;;;;;;;12.10;9.05;;;7.90;99.90;;;;;;5064799;28;20103;-57
2022/06/02 01:48:50;;;;;;;13.75;9.68;;;7.90;99.90;;;;;;5058081;28;20049;-58
2022/06/02 01:51:30;;;;;;;12.10;9.60;;;7.90;99.90;;;;;;5061776;28;20537;-57
2022/06/02 01:54:24;;;;;;;14.60;10.52;;;7.90;99.90;;;;;;5070358;28;20485;-57
2022/06/02 01:57:18;;;;;;;12.98;9.88;;;7.90;99.90;;;;;;5067032;28;20114;-57
2022/06/02 02:00:05;;;;;;;12.38;9.88;;;7.90;99.90;;;;;;5061233;28;20052;-58
2022/06/02 02:02:55;;;;;;;15.18;10.95;;;7.90;99.90;;;;;;5053104;28;20119;-57
2022/06/02 02:05:51;;;;;;;13.07;10.32;;;7.90;99.90;;;;;;5061927;28;20075;-57
2022/06/02 02:08:26;;;;;;;11.90;10.52;;;7.90;99.90;;;;;;5068395;28;20041;-58
2022/06/02 02:11:25;;;;;;;12.95;9.88;;;7.90;99.90;;;;;;5059730;28;20045;-57
2022/06/02 02:13:54;;;;;;;10.88;9.63;;;7.90;99.90;;;;;;5069056;28;20449;-57
2022/06/02 02:16:26;;;;;;;12.15;10.48;;;7.90;99.90;;;;;;5063345;28;20044;-57
2022/06/02 02:19:03;;;;;;;15.25;10.90;;;7.80;99.90;;;;;;5069201;28;20037;-57
2022/06/02 02:21:51;;;;;;;12.82;11.10;;;7.90;99.90;;;;;;5063778;28;20489;-57
2022/06/02 02:24:20;;;;;;;13.60;10.63;;;7.80;99.90;;;;;;5060958;28;20052;-57
2022/06/02 02:27:07;;;;;;;13.15;10.75;;;7.80;99.90;;;;;;5050604;28;20049;-58
2022/06/02 02:29:40;;;;;;;22.13;9.98;;;7.80;99.90;;;;;;5062085;28;20052;-58
2022/06/02 02:32:20;;;;;;;11.32;9.73;;;7.80;99.90;;;;;;5059294;28;20049;-57
2022/06/02 02:35:23;;;;;;;11.70;9.50;;;7.70;99.90;;;;;;5063132;28;20087;-57
2022/06/02 02:37:58;;;;;;;15.38;10.07;;;7.60;99.90;;;;;;5059479;28;20113;-56
2022/06/02 02:40:43;;;;;;;12.98;9.50;;;7.60;99.90;;;;;;5061740;28;20040;-57
2022/06/02 02:43:16;;;;;;;11.07;9.43;;;7.60;99.90;;;;;;5067492;28;20423;-58
2022/06/02 02:45:51;;;;;;;10.75;9.40;;;7.50;99.90;;;;;;5059632;28;20052;-57
2022/06/02 02:48:37;;;;;;;10.93;9.27;;;7.50;99.90;;;;;;5065791;28;20112;-57
2022/06/02 02:51:21;;;;;;;13.80;9.88;;;7.40;99.90;;;;;;5061143;28;20512;-57
2022/06/02 02:53:57;;;;;;;14.43;10.50;;;7.40;99.90;;;;;;5067735;28;20137;-58
2022/06/02 02:56:32;;;;;;;15.65;11.60;;;7.50;99.90;;;;;;5058601;28;20047;-57
2022/06/02 02:59:35;;;;;;;14.30;11.55;;;7.50;99.90;;;;;;5060790;28;20544;-57
2022/06/02 03:02:19;;;;;;;14.07;11.37;;;7.60;99.90;;;;;;5058553;28;20557;-56
2022/06/02 03:05:00;;;;;;;14.63;11.52;;;7.60;99.90;;;;;;5060490;28;20056;-57
2022/06/02 03:07:29;;;;;;;15.25;11.52;;;7.70;99.90;;;;;;5062204;28;20487;-57
2022/06/02 03:10:06;;;;;;;12.63;11.25;;;7.60;99.90;;;;;;5066407;28;20059;-57
2022/06/02 03:12:41;;;;;;;16.90;11.20;;;7.60;99.90;;;;;;5056988;28;20032;-57
2022/06/02 03:15:17;;;;;;;15.63;11.10;;;7.60;99.90;;;;;;5060848;28;20052;-56
2022/06/02 03:18:04;;;;;;;12.65;10.20;;;7.60;99.90;;;;;;5057911;28;20036;-58
2022/06/02 03:20:39;;;;;;;12.63;9.75;;;7.60;99.90;;;;;;5064420;28;20143;-56
2022/06/02 03:23:38;;;;;;;11.93;10.60;;;7.50;99.90;;;;;;5062987;28;20071;-57
2022/06/02 03:26:13;;;;;;;11.43;10.23;;;7.50;99.90;;;;;;5063254;28;20052;-57
2022/06/02 03:29:04;;;;;;;14.30;10.80;;;7.50;99.90;;;;;;5062060;28;20040;-58
2022/06/02 03:32:00;;;;;;;11.98;10.32;;;7.50;99.90;;;;;;5056304;28;20421;-57
2022/06/02 03:34:41;;;;;;;12.43;10.23;;;7.60;99.90;;;;;;5065632;28;20080;-56
2022/06/02 03:37:28;;;;;;;11.45;10.05;;;7.60;99.90;;;;;;5064827;28;20143;-56
2022/06/02 03:40:25;;;;;;;12.93;9.80;;;7.60;99.90;;;;;;5064621;28;20159;-57
2022/06/02 03:43:15;;;;;;;13.50;10.85;;;7.60;99.90;;;;;;5059081;28;20494;-58
2022/06/02 03:45:57;;;;;;;11.15;9.82;;;7.60;99.90;;;;;;5059762;28;20044;-57
2022/06/02 03:48:32;;;;;;;11.03;9.57;;;7.60;99.90;;;;;;5061343;28;20395;-57
2022/06/02 03:51:16;;;;;;;12.00;10.13;;;7.60;99.90;;;;;;5058732;28;20475;-58
2022/06/02 03:53:42;;;;;;;12.07;9.73;;;7.60;99.90;;;;;;5049326;28;20044;-57
2022/06/02 03:56:37;;;;;;;11.18;9.77;;;7.60;99.90;;;;;;5064016;28;20474;-57
2022/06/02 03:59:03;;;;;;;10.75;9.50;;;7.60;99.90;;;;;;5047792;28;20141;-57
2022/06/02 04:01:39;;;;;;;13.57;10.02;;;7.60;99.90;;;;;;5063561;28;20068;-57
2022/06/02 04:04:26;;;;;;;11.60;9.90;;;7.70;99.90;;;;;;5059632;28;20107;-57
2022/06/02 04:07:22;;;;;;;10.80;8.88;;;7.70;99.90;;;;;;5061897;28;20051;-57
2022/06/02 04:10:13;;;;;;;14.18;10.07;;;7.70;99.90;;;;;;5051069;28;20499;-58
2022/06/02 04:15:53;;;;;;;11.02;9.85;;;7.80;99.90;;;;;;5059497;28;20044;-57
2022/06/02 04:18:30;;;;;;;11.43;8.85;;;7.80;99.90;;;;;;5062429;28;20509;-58
2022/06/02 04:21:04;;;;;;;10.68;9.57;;;7.90;99.90;;;;;;5053350;28;20071;-57
2022/06/02 04:24:28;;;;;;;11.07;9.77;;;7.80;99.90;;;;;;5063054;28;20094;-57
2022/06/02 04:27:00;;;;;;;10.88;8.80;;;7.90;99.90;;;;;;4961954;28;20058;-56
2022/06/02 04:30:07;;;;;;;14.88;10.25;;;7.90;99.90;;;;;;4962551;28;20050;-57
2022/06/02 04:32:57;;;;;;;12.82;10.38;;;7.90;99.90;;;;;;5051817;28;20044;-58
2022/06/02 04:35:29;;;;;;;14.52;10.02;;;8.00;99.90;;;;;;5064728;28;20052;-57
2022/06/02 04:38:26;;;;;;;11.75;9.77;;;8.10;99.90;;;;;;5060778;28;20098;-57
2022/06/02 04:41:05;;;;;;;12.43;10.35;;;8.20;99.90;;;;;;5056039;28;20483;-56
2022/06/02 04:44:11;;;;;;;10.85;8.95;;;8.30;99.90;;;;;;5064891;28;20079;-56
2022/06/02 04:46:42;;;;;;;13.07;10.13;;;8.40;99.90;;;;;;4992798;28;20054;-57
2022/06/02 04:49:33;;;;;;;10.07;9.07;;;8.40;99.90;;;;;;5045135;28;20215;-57
2022/06/02 04:52:20;;;;;;;13.30;9.68;;;8.50;99.90;;;;;;5063378;28;20049;-57
2022/06/02 04:55:06;;;;;;;12.35;9.23;;;8.50;99.90;;;;;;5061152;28;20040;-57
2022/06/02 04:57:56;;;;;;;11.43;9.02;;;8.60;99.90;;;;;;5064745;28;20062;-57
2022/06/02 05:00:39;;;;;;;11.43;9.90;;;8.70;99.90;;;;;;5062796;28;20045;-57
2022/06/02 05:03:29;;;;;;;12.80;9.82;;;8.70;99.90;;;;;;5067927;28;20406;-56
2022/06/02 05:06:15;;;;;;;13.18;8.52;;;8.80;99.90;;;;;;5061281;28;20053;-58
2022/06/02 05:09:02;;;;;;;9.45;7.97;;;8.90;99.90;;;;;;5068988;28;20053;-56
2022/06/02 05:11:40;;;;;;;10.43;8.05;;;8.90;99.90;;;;;;5065810;28;20045;-56
2022/06/02 05:14:28;;;;;;;12.10;7.78;;;9.00;99.90;;;;;;5063016;28;20415;-57
2022/06/02 05:17:30;;;;;;;8.15;7.35;;;9.10;99.90;;;;;;5064510;28;20075;-56
2022/06/02 05:20:15;;;;;;;9.82;7.95;;;9.20;99.90;;;;;;5063185;28;20090;-57
2022/06/02 05:23:12;;;;;;;11.68;7.60;;;9.30;99.90;;;;;;5057661;28;20109;-57
2022/06/02 05:25:41;;;;;;;10.93;7.72;;;9.40;99.90;;;;;;5060006;28;20171;-57
2022/06/02 05:28:07;;;;;;;8.43;7.60;;;9.40;99.90;;;;;;5064769;28;20089;-57
2022/06/02 05:30:51;;;;;;;11.90;7.82;;;9.50;99.90;;;;;;5050384;28;20046;-57
2022/06/02 05:33:37;;;;;;;11.18;7.30;;;9.60;99.90;;;;;;5059716;28;20048;-57
2022/06/02 05:36:22;;;;;;;10.95;7.97;;;9.60;99.90;;;;;;5055909;28;20188;-58
2022/06/02 05:39:14;;;;;;;9.07;7.03;;;9.80;99.90;;;;;;5064860;28;20060;-57
2022/06/02 05:41:46;;;;;;;7.32;6.63;;;9.80;99.90;;;;;;5056408;28;20084;-57
2022/06/02 05:44:21;;;;;;;9.43;6.07;;;9.90;99.90;;;;;;5053817;28;20398;-58
2022/06/02 05:47:14;;;;;;;7.85;6.18;;;10.00;99.90;;;;;;5050796;28;20410;-58
2022/06/02 05:50:02;;;;;;;8.27;5.70;;;10.10;99.90;;;;;;5058623;28;20058;-58
2022/06/02 05:53:01;;;;;;;6.07;5.32;;;10.20;99.90;;;;;;5051907;28;20040;-57
2022/06/02 05:55:39;;;;;;;7.53;4.80;;;10.30;99.90;;;;;;5043566;28;20498;-58
2022/06/02 05:58:05;;;;;;;7.28;4.80;;;10.40;99.90;;;;;;5059834;28;20507;-57
2022/06/02 06:01:05;;;;;;;6.75;5.25;;;10.50;99.90;;;;;;5059631;28;20097;-58
2022/06/02 06:03:43;;;;;;;6.00;4.70;;;10.60;99.90;;;;;;5058552;28;20538;-57
2022/06/02 06:06:20;;;;;;;7.30;4.88;;;10.70;99.90;;;;;;5063751;28;20135;-58
2022/06/02 06:08:53;;;;;;;8.23;4.75;;;10.80;99.90;;;;;;5062365;28;20498;-56
2022/06/02 06:11:37;;;;;;;6.30;4.68;;;10.90;99.90;;;;;;5063828;28;20055;-56
2022/06/02 06:14:24;;;;;;;5.85;4.43;;;11.00;99.90;;;;;;5064175;28;20052;-57
2022/06/02 06:17:11;;;;;;;5.82;4.18;;;11.10;99.90;;;;;;5055773;28;20041;-53
2022/06/02 06:19:51;;;;;;;7.00;4.32;;;11.20;99.90;;;;;;5064741;28;20060;-54
2022/06/02 06:22:26;;;;;;;7.30;4.10;;;11.30;99.90;;;;;;5069371;28;20052;-54
2022/06/02 06:25:26;;;;;;;6.90;4.15;;;11.50;99.90;;;;;;5081162;28;20045;-53
2022/06/02 06:28:01;;;;;;;6.88;4.00;;;11.60;99.90;;;;;;5069542;28;20123;-52
2022/06/02 06:30:39;;;;;;;7.30;3.60;;;11.70;99.90;;;;;;5067277;28;20527;-54
2022/06/02 06:33:27;;;;;;;6.13;3.63;;;11.80;99.90;;;;;;5069598;28;20568;-53
2022/06/02 06:36:17;;;;;;;8.13;3.88;;;12.00;99.90;;;;;;5066303;28;20430;-52
2022/06/02 06:39:06;;;;;;;8.02;3.70;;;12.10;99.90;;;;;;5068831;28;20094;-53
2022/06/02 06:41:50;;;;;;;7.28;3.85;;;12.20;99.90;;;;;;5068064;28;20045;-54
2022/06/02 06:44:25;;;;;;;5.53;3.60;;;12.30;99.90;;;;;;5063141;28;20044;-52
2022/06/02 06:47:14;;;;;;;6.97;4.05;;;12.40;99.90;;;;;;5065834;28;20045;-54
2022/06/02 06:50:24;;;;;;;6.00;3.60;;;12.50;99.90;;;;;;5056057;28;20103;-51
2022/06/02 06:53:31;;;;;;;7.63;3.08;;;12.60;99.90;;;;;;5054112;28;20406;-53
2022/06/02 06:56:28;;;;;;;5.60;3.40;;;12.60;99.90;;;;;;5068240;28;20047;-52
2022/06/02 06:59:07;;;;;;;6.03;3.83;;;12.70;99.90;;;;;;5057568;28;20123;-53
2022/06/02 07:01:58;;;;;;;6.82;3.13;;;12.70;99.90;;;;;;5061902;28;20513;-53
2022/06/02 07:04:48;;;;;;;5.07;3.45;;;12.80;99.90;;;;;;5059771;28;20482;-51
2022/06/02 07:07:40;;;;;;;4.72;3.17;;;12.90;99.90;;;;;;5067125;28;20110;-53
2022/06/02 07:10:09;;;;;;;6.75;3.08;;;13.00;99.90;;;;;;5063302;28;20490;-52
2022/06/02 07:12:53;;;;;;;6.40;3.00;;;13.10;99.90;;;;;;5048938;28;20052;-53
2022/06/02 07:15:36;;;;;;;8.20;2.35;;;13.20;99.90;;;;;;5051033;28;20048;-53
2022/06/02 07:18:12;;;;;;;4.10;1.98;;;13.30;99.90;;;;;;5066127;28;20490;-53
2022/06/02 07:20:50;;;;;;;6.53;2.20;;;13.30;99.90;;;;;;5062029;28;20045;-52
2022/06/02 07:23:56;;;;;;;4.18;2.30;;;13.40;99.90;;;;;;5064083;28;20040;-53
2022/06/02 07:26:51;;;;;;;7.18;2.13;;;13.50;99.90;;;;;;5064585;28;20044;-53
2022/06/02 07:29:48;;;;;;;2.45;1.95;;;13.70;99.90;;;;;;5062703;28;20048;-54
2022/06/02 07:32:25;;;;;;;5.13;2.20;;;13.80;99.90;;;;;;5066230;28;20071;-53
2022/06/02 07:35:13;;;;;;;6.25;2.72;;;14.00;99.90;;;;;;5062389;28;20131;-51
2022/06/02 07:37:39;;;;;;;4.20;2.15;;;13.90;99.90;;;;;;5066966;28;20157;-54
2022/06/02 07:40:13;;;;;;;4.38;1.70;;;13.90;99.90;;;;;;5062351;28;20135;-52
2022/06/02 07:43:04;;;;;;;2.95;1.70;;;13.90;99.90;;;;;;5063638;28;20052;-53
2022/06/02 07:45:55;;;;;;;4.43;2.08;;;13.90;99.90;;;;;;5063515;28;20071;-53
2022/06/02 07:48:43;;;;;;;3.42;1.90;;;14.00;99.90;;;;;;5065837;28;20060;-53
2022/06/02 07:51:24;;;;;;;4.07;2.10;;;14.10;99.90;;;;;;5062687;28;20041;-52
2022/06/02 07:54:11;;;;;;;4.25;2.22;;;14.30;99.90;;;;;;5062309;28;20059;-54
2022/06/02 07:57:27;;;;;;;4.93;2.08;;;14.30;99.90;;;;;;5063812;28;20072;-54
2022/06/02 07:59:58;;;;;;;5.03;2.15;;;14.30;99.90;;;;;;5036915;28;20044;-53
2022/06/02 08:02:43;;;;;;;4.00;2.10;;;14.40;99.90;;;;;;5059584;28;20111;-53
2022/06/02 08:05:34;;;;;;;3.35;2.10;;;14.50;99.90;;;;;;5064770;28;20497;-55
2022/06/02 08:08:29;;;;;;;3.28;1.92;;;14.60;99.90;;;;;;5063320;28;20043;-53
2022/06/02 08:11:10;;;;;;;2.95;1.80;;;14.70;99.90;;;;;;5061602;28;20702;-52
2022/06/02 08:13:56;;;;;;;3.13;1.83;;;14.70;99.90;;;;;;5063931;28;20044;-52
2022/06/02 08:16:46;;;;;;;6.22;2.35;;;14.70;99.90;;;;;;5063941;28;20127;-53
2022/06/02 08:19:40;;;;;;;4.40;1.83;;;14.70;99.90;;;;;;5062645;28;20040;-53
2022/06/02 08:22:10;;;;;;;4.55;2.13;;;14.80;99.90;;;;;;5061856;28;20556;-53
2022/06/02 08:24:46;;;;;;;3.13;1.83;;;14.70;99.90;;;;;;5045040;28;20284;-53
2022/06/02 08:27:33;;;;;;;2.33;1.80;;;14.70;99.90;;;;;;5064333;28;20072;-53
2022/06/02 08:30:29;;;;;;;2.40;1.83;;;14.70;99.90;;;;;;5065878;28;20048;-52
2022/06/02 08:33:04;;;;;;;6.85;2.08;;;14.80;99.90;;;;;;5067015;28;20048;-53
2022/06/02 08:35:47;;;;;;;3.42;2.10;;;14.90;99.90;;;;;;5065391;28;20120;-53
2022/06/02 08:38:49;;;;;;;2.67;2.05;;;14.80;99.90;;;;;;5066857;28;20041;-54
2022/06/02 08:41:49;;;;;;;5.50;2.20;;;14.80;99.90;;;;;;5067409;28;20143;-52
2022/06/02 08:44:52;;;;;;;4.80;2.15;;;14.80;99.90;;;;;;5069250;28;20087;-53
2022/06/02 08:47:33;;;;;;;3.90;1.65;;;15.00;99.90;;;;;;5066953;28;20048;-53
2022/06/02 08:50:21;;;;;;;2.65;1.63;;;15.10;99.90;;;;;;5083661;28;20076;-50
2022/06/02 08:53:03;;;;;;;4.03;1.90;;;15.20;99.90;;;;;;5064678;28;20072;-53
2022/06/02 08:56:11;;;;;;;3.40;2.10;;;15.20;99.90;;;;;;5066210;28;20885;-54
2022/06/02 08:58:46;;;;;;;2.70;1.80;;;15.40;99.90;;;;;;5069815;28;20115;-53
2022/06/02 09:01:14;;;;;;;4.63;1.77;;;15.50;99.90;;;;;;5066315;28;20044;-51
2022/06/02 09:03:49;;;;;;;3.42;2.10;;;15.60;99.90;;;;;;5067609;28;20446;-54
2022/06/02 09:06:53;;;;;;;3.17;1.83;;;15.80;99.90;;;;;;5066687;28;20139;-54
2022/06/02 09:09:49;;;;;;;4.00;1.80;;;15.90;99.90;;;;;;5065588;28;20046;-54
2022/06/02 09:12:26;;;;;;;3.38;1.55;;;15.90;99.90;;;;;;5066184;28;20143;-53
2022/06/02 09:15:24;;;;;;;3.97;1.70;;;15.90;99.90;;;;;;5068679;28;20049;-53
2022/06/02 09:18:15;;;;;;;3.22;1.90;;;15.90;99.90;;;;;;5035526;28;20033;-54
2022/06/02 09:20:44;;;;;;;2.35;1.70;;;16.20;99.90;;;;;;5065444;28;20106;-54
2022/06/02 09:23:15;;;;;;;4.53;1.85;;;16.40;99.90;;;;;;5063855;28;20044;-55
2022/06/02 09:25:41;;;;;;;2.35;1.77;;;16.50;99.90;;;;;;5064990;28;20052;-55
2022/06/02 09:28:46;;;;;;;3.25;2.05;;;16.70;99.70;;;;;;5064075;28;20677;-53
2022/06/02 09:31:31;;;;;;;4.93;2.13;;;16.70;99.70;;;;;;5054922;28;20139;-55
2022/06/02 09:34:25;;;;;;;2.78;1.67;;;16.70;99.50;;;;;;5069573;28;20193;-54
2022/06/02 09:37:10;;;;;;;4.80;2.15;;;16.70;99.40;;;;;;5065491;28;20052;-54
2022/06/02 09:40:03;;;;;;;4.32;1.90;;;16.80;99.70;;;;;;5069440;28;20044;-54
2022/06/02 09:42:53;;;;;;;3.30;1.98;;;17.20;99.60;;;;;;5063658;28;20062;-54
2022/06/02 09:45:40;;;;;;;7.07;2.42;;;17.50;99.40;;;;;;5065166;28;20040;-54
2022/06/02 09:48:50;;;;;;;4.00;1.98;;;17.40;99.10;;;;;;5066212;28;20039;-54
2022/06/02 09:51:46;;;;;;;2.78;1.90;;;17.30;98.80;;;;;;5066950;28;20479;-54
2022/06/02 09:54:32;;;;;;;4.80;2.20;;;17.10;98.80;;;;;;5063578;28;20127;-54
2022/06/02 10:00:30;;;;;;;4.07;1.83;;;17.10;99.20;;;;;;5063865;28;20036;-54
2022/06/02 10:03:14;;;;;;;3.20;1.73;;;17.40;99.20;;;;;;5069501;28;20048;-56
2022/06/02 10:05:45;;;;;;;3.05;1.80;;;17.70;99.20;;;;;;5056117;28;20122;-54
2022/06/02 10:08:14;;;;;;;2.88;1.80;;;17.80;98.70;;;;;;5060575;28;20098;-53
2022/06/02 10:10:49;;;;;;;2.38;1.48;;;17.90;98.00;;;;;;5065144;28;20040;-54
2022/06/02 10:13:15;;;;;;;3.08;1.65;;;18.00;97.50;;;;;;5067404;28;20052;-55
2022/06/02 10:15:41;;;;;;;3.92;1.70;;;18.20;97.20;;;;;;5063603;28;20513;-55
2022/06/02 10:18:45;;;;;;;3.40;1.70;;;18.40;97.10;;;;;;5065316;28;20102;-55
2022/06/02 10:21:29;;;;;;;2.63;1.60;;;18.70;96.60;;;;;;5066230;28;20041;-53
2022/06/02 10:23:58;;;;;;;4.60;2.22;;;19.00;96.00;;;;;;5067655;28;20093;-54
2022/06/02 10:26:55;;;;;;;4.57;2.00;;;19.30;95.80;;;;;;5060849;28;20055;-54
2022/06/02 10:29:40;;;;;;;3.75;1.95;;;19.20;95.20;;;;;;5035862;28;20048;-52
2022/06/02 10:32:25;;;;;;;3.35;1.80;;;18.90;94.60;;;;;;5059408;28;20048;-53
2022/06/02 10:35:15;;;;;;;5.35;1.70;;;18.70;94.90;;;;;;5079567;28;20056;-54
2022/06/02 10:38:24;;;;;;;4.65;2.20;;;18.70;94.90;;;;;;5066060;28;20044;-53
2022/06/02 10:41:19;;;;;;;2.63;1.55;;;19.00;95.30;;;;;;5038344;28;20052;-53
2022/06/02 10:44:07;;;;;;;4.07;2.35;;;19.30;94.60;;;;;;5036477;28;20583;-54
2022/06/02 10:46:55;;;;;;;4.03;2.05;;;19.30;94.40;;;;;;5061644;28;20048;-54
2022/06/02 10:49:38;;;;;;;2.53;2.08;;;19.40;94.80;;;;;;5065695;28;20044;-54
2022/06/02 10:52:42;;;;;;;5.20;2.10;;;19.40;94.40;;;;;;5059082;28;20149;-52
2022/06/02 10:55:42;;;;;;;6.95;2.10;;;19.40;94.40;;;;;;5056876;28;20084;-53
2022/06/02 10:58:38;;;;;;;2.65;1.80;;;19.30;94.00;;;;;;5061323;28;20090;-52
2022/06/02 11:01:23;;;;;;;2.85;1.77;;;19.20;94.00;;;;;;5053845;28;20506;-51
2022/06/02 11:04:17;;;;;;;2.95;1.90;;;19.20;94.10;;;;;;5064703;28;20056;-53
2022/06/02 11:06:51;;;;;;;2.95;1.70;;;19.20;93.60;;;;;;5062915;28;20051;-54
2022/06/02 11:09:35;;;;;;;4.10;1.90;;;19.00;93.20;;;;;;5064335;28;20102;-54
2022/06/02 11:12:35;;;;;;;4.55;1.73;;;18.90;93.60;;;;;;5063606;28;20048;-54
2022/06/02 11:15:42;;;;;;;3.25;1.73;;;18.90;94.10;;;;;;5064318;28;20510;-54
2022/06/02 11:18:26;;;;;;;3.20;1.80;;;18.80;93.90;;;;;;5065041;28;20439;-55
2022/06/02 11:20:58;;;;;;;6.22;2.40;;;18.70;94.00;;;;;;5068787;28;20045;-54
2022/06/02 11:23:24;;;;;;;4.70;1.90;;;19.00;94.90;;;;;;5065187;28;20048;-55
2022/06/02 11:26:04;;;;;;;4.03;2.10;;;19.10;94.90;;;;;;5063083;28;20055;-53
2022/06/02 11:28:59;;;;;;;4.85;2.15;;;19.10;93.80;;;;;;5064562;28;20131;-54
2022/06/02 11:31:43;;;;;;;5.30;1.90;;;19.10;93.40;;;;;;5064732;28;20068;-53
2022/06/02 11:34:24;;;;;;;5.90;2.40;;;19.40;92.90;;;;;;5060713;28;20423;-53
2022/06/02 11:36:53;;;;;;;3.63;2.10;;;19.50;93.60;;;;;;5041263;28;20085;-54
2022/06/02 11:39:28;;;;;;;4.28;2.10;;;19.60;92.90;;;;;;5059036;28;20051;-54
2022/06/02 11:42:15;;;;;;;3.38;1.90;;;19.50;93.30;;;;;;5058540;28;20036;-54
2022/06/02 11:44:56;;;;;;;3.38;1.90;;;19.50;92.50;;;;;;5065041;28;20046;-55
2022/06/02 11:47:42;;;;;;;6.45;1.63;;;19.60;92.90;;;;;;5062041;28;20475;-54
2022/06/02 11:50:58;;;;;;;4.38;1.70;;;19.70;93.20;;;;;;5061993;28;20285;-52
2022/06/02 11:53:27;;;;;;;3.33;1.70;;;20.00;93.00;;;;;;5049365;28;20060;-54
2022/06/02 11:56:06;;;;;;;3.00;1.70;;;20.30;92.70;;;;;;5064437;28;20073;-55
2022/06/02 11:59:19;;;;;;;4.78;1.73;;;20.70;92.10;;;;;;5059965;28;20076;-54
2022/06/02 12:01:58;;;;;;;4.78;2.17;;;20.90;91.20;;;;;;5032035;28;20052;-54
2022/06/02 12:04:24;;;;;;;8.18;1.67;;;21.10;90.70;;;;;;5067574;28;20079;-55
2022/06/02 12:07:08;;;;;;;3.00;1.70;;;21.20;89.60;;;;;;5060970;28;20071;-54
2022/06/02 12:10:10;;;;;;;3.95;1.55;;;21.10;88.40;;;;;;5071097;28;20040;-53
2022/06/02 12:12:45;;;;;;;8.43;1.70;;;21.00;87.80;;;;;;5067788;28;20498;-53
2022/06/02 12:15:38;;;;;;;7.18;1.83;;;21.10;88.50;;;;;;5068797;28;20049;-53
2022/06/02 12:18:26;;;;;;;2.75;1.67;;;21.30;87.00;;;;;;5069043;28;20542;-53
2022/06/02 12:21:01;;;;;;;5.20;1.40;;;21.40;88.80;;;;;;5066551;28;20115;-53
2022/06/02 12:23:48;;;;;;;3.35;1.77;;;21.70;86.10;;;;;;5070365;28;20498;-54
2022/06/02 12:26:35;;;;;;;3.67;1.50;;;21.50;83.50;;;;;;5071188;28;20534;-55
2022/06/02 12:29:12;;;;;;;4.22;1.50;;;21.10;83.40;;;;;;5067667;28;20063;-55
2022/06/02 12:31:50;;;;;;;4.82;1.70;;;21.10;85.70;;;;;;5065578;28;20076;-54
2022/06/02 12:34:22;;;;;;;7.43;1.80;;;21.10;85.60;;;;;;5064074;28;22393;-54
2022/06/02 12:37:06;;;;;;;4.90;2.20;;;21.10;84.00;;;;;;5068691;28;20499;-55
2022/06/02 12:39:56;;;;;;;5.20;1.92;;;21.30;85.90;;;;;;5070586;28;20051;-54
2022/06/02 12:43:11;;;;;;;3.65;1.70;;;21.50;83.10;;;;;;5066728;28;20460;-55
2022/06/02 12:45:44;;;;;;;2.47;1.60;;;21.60;82.50;;;;;;5031972;28;20072;-54
2022/06/02 12:48:19;;;;;;;2.20;1.45;;;21.80;81.70;;;;;;5067126;28;20044;-54
2022/06/02 12:51:17;;;;;;;3.83;1.73;;;22.10;81.10;;;;;;5064983;28;20413;-55
2022/06/02 12:54:07;;;;;;;4.60;1.80;;;22.20;77.10;;;;;;5065681;28;20044;-56
2022/06/02 12:57:09;;;;;;;2.47;1.70;;;22.20;76.50;;;;;;5069193;28;20041;-55
2022/06/02 13:00:02;;;;;;;5.30;1.80;;;22.30;76.80;;;;;;5063467;28;20435;-55
2022/06/02 13:02:59;;;;;;;4.63;1.63;;;22.40;76.70;;;;;;5067667;28;20588;-55
2022/06/02 13:05:59;;;;;;;3.15;1.40;;;22.40;76.00;;;;;;5063357;28;20510;-55
2022/06/02 13:08:37;;;;;;;4.55;1.50;;;22.60;76.00;;;;;;5062545;28;20418;-56
2022/06/02 13:11:27;;;;;;;5.13;1.40;;;22.70;75.40;;;;;;5058233;28;20048;-55
2022/06/02 13:14:32;;;;;;;5.72;1.88;;;22.80;74.60;;;;;;5064778;28;20044;-55
2022/06/02 13:17:04;;;;;;;2.08;1.50;;;22.80;72.90;;;;;;5065180;28;20067;-55
2022/06/02 13:19:55;;;;;;;4.38;1.48;;;22.40;72.50;;;;;;5057989;28;20049;-55
2022/06/02 13:22:47;;;;;;;3.55;1.60;;;22.20;72.90;;;;;;5065361;28;20048;-56
2022/06/02 13:25:31;;;;;;;4.88;1.70;;;22.30;73.70;;;;;;5063263;28;20043;-56
2022/06/02 13:28:33;;;;;;;5.78;1.50;;;22.50;75.30;;;;;;5060397;28;20056;-55
2022/06/02 13:31:24;;;;;;;4.40;1.23;;;22.80;74.20;;;;;;5058414;28;20429;-55
2022/06/02 13:34:10;;;;;;;1.60;1.17;;;23.00;70.00;;;;;;5055858;28;20066;-55
2022/06/02 13:37:15;;;;;;;2.40;1.40;;;23.10;71.40;;;;;;5064192;28;20079;-56
2022/06/02 13:40:08;;;;;;;3.80;1.70;;;23.30;70.00;;;;;;5065582;28;20063;-54
2022/06/02 13:42:37;;;;;;;;;;;23.50;70.50;;;;;;5065280;28;20045;-56
2022/06/02 13:45:35;;;;;;;3.17;1.48;;;23.90;72.80;;;;;;5061940;28;20371;-56
2022/06/02 13:48:26;;;;;;;3.33;1.58;;;24.30;70.40;;;;;;5057434;28;20055;-55
2022/06/02 13:51:42;;;;;;;2.58;1.30;;;24.40;68.00;;;;;;5066867;28;20098;-55
2022/06/02 13:57:32;;;;;;;3.00;1.30;;;24.10;66.10;;;;;;5062624;28;20041;-55
2022/06/02 14:00:20;;;;;;;5.97;1.70;;;24.20;67.20;;;;;;5064567;28;21293;-56
2022/06/02 14:03:30;;;;;;;2.38;1.20;;;24.40;67.40;;;;;;5063255;28;20045;-54
2022/06/02 14:06:05;;;;;;;1.60;1.33;;;24.60;66.40;;;;;;5000507;28;20747;-55
2022/06/02 14:08:46;;;;;;;3.38;1.20;;;24.80;64.00;;;;;;5050394;28;20471;-56
2022/06/02 14:11:42;;;;;;;3.03;1.33;;;24.50;62.50;;;;;;5063948;28;20043;-55
2022/06/02 14:14:31;;;;;;;3.55;1.23;;;24.50;64.70;;;;;;5065954;28;20139;-55
2022/06/02 14:17:35;;;;;;;4.00;1.40;;;24.60;64.50;;;;;;5056316;28;20044;-56
2022/06/02 14:20:28;;;;;;;3.15;1.40;;;24.60;63.30;;;;;;5059030;28;20063;-56
2022/06/02 14:23:26;;;;;;;3.75;1.30;;;24.80;63.00;;;;;;5062968;28;20402;-56
2022/06/02 14:26:13;;;;;;;5.18;1.48;;;24.90;62.80;;;;;;5027928;28;20090;-56
2022/06/02 14:28:41;;;;;;;5.57;1.42;;;25.10;62.10;;;;;;5061335;28;20974;-56
2022/06/02 14:31:33;;;;;;;2.55;1.20;;;25.00;60.90;;;;;;5059028;28;20052;-56
2022/06/02 14:34:36;;;;;;;4.03;1.42;;;25.00;62.50;;;;;;5052657;28;20082;-57
2022/06/02 14:37:11;;;;;;;2.97;1.20;;;24.80;60.90;;;;;;5053852;28;20134;-54